sensor_id;sensor_type;location;lat;lon;timestamp;temperature;humidity
10314;DHT22;5202;49.138;10.090;2022-10-16T00:01:45;14.30;99.90
10314;DHT22;5202;49.138;10.090;2022-10-16T00:04:14;14.30;99.90
10314;DHT22;5202;49.138;10.090;2022-10-16T00:07:07;14.30;99.90
10314;DHT22;5202;49.138;10.090;2022-10-16T00:09:35;14.30;99.90
10314;DHT22;5202;49.138;10.090;2022-10-16T00:12:03;14.40;99.90
10314;DHT22;5202;49.138;10.090;2022-10-16T00:14:33;14.40;99.90
10314;DHT22;5202;49.138;10.090;2022-10-16T00:17:03;14.40;99.90
10314;DHT22;5202;49.138;10.090;2022-10-16T00:19:31;14.40;99.90
10314;DHT22;5202;49.138;10.090;2022-10-16T00:21:59;14.40;99.90
10314;DHT22;5202;49.138;10.090;2022-10-16T00:24:28;14.40;99.90
10314;DHT22;5202;49.138;10.090;2022-10-16T00:26:56;14.40;99.90
10314;DHT22;5202;49.138;10.090;2022-10-16T00:29:25;14.40;99.90
10314;DHT22;5202;49.138;10.090;2022-10-16T00:31:53;14.40;99.90
10314;DHT22;5202;49.138;10.090;2022-10-16T00:34:24;14.40;99.90
10314;DHT22;5202;49.138;10.090;2022-10-16T00:36:52;14.40;99.90
10314;DHT22;5202;49.138;10.090;2022-10-16T00:39:20;14.40;99.90
10314;DHT22;5202;49.138;10.090;2022-10-16T00:41:49;14.40;99.90
10314;DHT22;5202;49.138;10.090;2022-10-16T00:44:49;14.50;99.90
10314;DHT22;5202;49.138;10.090;2022-10-16T00:47:22;14.40;99.90
10314;DHT22;5202;49.138;10.090;2022-10-16T00:50:00;14.40;99.90
10314;DHT22;5202;49.138;10.090;2022-10-16T00:52:32;14.40;99.90
10314;DHT22;5202;49.138;10.090;2022-10-16T00:55:02;14.40;99.90
10314;DHT22;5202;49.138;10.090;2022-10-16T00:57:31;14.40;99.90
10314;DHT22;5202;49.138;10.090;2022-10-16T01:00:00;14.50;99.90
10314;DHT22;5202;49.138;10.090;2022-10-16T01:02:28;14.50;99.90
10314;DHT22;5202;49.138;10.090;2022-10-16T01:04:58;14.50;99.90
10314;DHT22;5202;49.138;10.090;2022-10-16T01:07:36;14.50;99.90
10314;DHT22;5202;49.138;10.090;2022-10-16T01:10:20;14.50;99.90
10314;DHT22;5202;49.138;10.090;2022-10-16T01:12:59;14.40;99.90
10314;DHT22;5202;49.138;10.090;2022-10-16T01:15:32;14.50;99.90
10314;DHT22;5202;49.138;10.090;2022-10-16T01:18:11;14.50;99.90
10314;DHT22;5202;49.138;10.090;2022-10-16T01:20:47;14.50;99.90
10314;DHT22;5202;49.138;10.090;2022-10-16T01:23:27;14.50;99.90
10314;DHT22;5202;49.138;10.090;2022-10-16T01:26:15;14.50;99.90
10314;DHT22;5202;49.138;10.090;2022-10-16T01:29:00;14.50;99.90
10314;DHT22;5202;49.138;10.090;2022-10-16T01:31:35;14.50;99.90
10314;DHT22;5202;49.138;10.090;2022-10-16T01:34:07;14.50;99.90
10314;DHT22;5202;49.138;10.090;2022-10-16T01:36:47;14.60;99.90
10314;DHT22;5202;49.138;10.090;2022-10-16T01:39:45;14.60;99.90
10314;DHT22;5202;49.138;10.090;2022-10-16T01:42:19;14.50;99.90
10314;DHT22;5202;49.138;10.090;2022-10-16T01:44:51;14.60;99.90
10314;DHT22;5202;49.138;10.090;2022-10-16T01:47:23;14.60;99.90
10314;DHT22;5202;49.138;10.090;2022-10-16T01:49:55;14.60;99.90
10314;DHT22;5202;49.138;10.090;2022-10-16T01:52:26;14.60;99.90
10314;DHT22;5202;49.138;10.090;2022-10-16T01:54:57;14.50;99.90
10314;DHT22;5202;49.138;10.090;2022-10-16T01:57:26;14.50;99.90
10314;DHT22;5202;49.138;10.090;2022-10-16T02:00:01;14.50;99.90
10314;DHT22;5202;49.138;10.090;2022-10-16T02:02:39;14.50;99.90
10314;DHT22;5202;49.138;10.090;2022-10-16T02:05:34;14.50;99.90
10314;DHT22;5202;49.138;10.090;2022-10-16T02:08:07;14.50;99.90
10314;DHT22;5202;49.138;10.090;2022-10-16T02:10:37;14.50;99.90
10314;DHT22;5202;49.138;10.090;2022-10-16T02:13:08;14.50;99.90
10314;DHT22;5202;49.138;10.090;2022-10-16T02:15:39;14.50;99.90
10314;DHT22;5202;49.138;10.090;2022-10-16T02:18:09;14.50;99.90
10314;DHT22;5202;49.138;10.090;2022-10-16T02:20:45;14.50;99.90
10314;DHT22;5202;49.138;10.090;2022-10-16T02:23:24;14.40;99.90
10314;DHT22;5202;49.138;10.090;2022-10-16T02:25:59;14.40;99.90
10314;DHT22;5202;49.138;10.090;2022-10-16T02:28:33;14.40;99.90
10314;DHT22;5202;49.138;10.090;2022-10-16T02:31:09;14.40;99.90
10314;DHT22;5202;49.138;10.090;2022-10-16T02:33:40;14.40;99.90
10314;DHT22;5202;49.138;10.090;2022-10-16T02:36:10;14.40;99.90
10314;DHT22;5202;49.138;10.090;2022-10-16T02:38:40;14.40;99.90
10314;DHT22;5202;49.138;10.090;2022-10-16T02:41:08;14.40;99.90
10314;DHT22;5202;49.138;10.090;2022-10-16T02:43:38;14.30;99.90
10314;DHT22;5202;49.138;10.090;2022-10-16T02:46:08;14.30;99.90
10314;DHT22;5202;49.138;10.090;2022-10-16T02:48:36;14.30;99.90
10314;DHT22;5202;49.138;10.090;2022-10-16T02:51:06;14.30;99.90
10314;DHT22;5202;49.138;10.090;2022-10-16T02:53:34;14.30;99.90
10314;DHT22;5202;49.138;10.090;2022-10-16T02:56:09;14.30;99.90
10314;DHT22;5202;49.138;10.090;2022-10-16T02:58:38;14.30;99.90
10314;DHT22;5202;49.138;10.090;2022-10-16T03:01:08;14.30;99.90
10314;DHT22;5202;49.138;10.090;2022-10-16T03:03:36;14.30;99.90
10314;DHT22;5202;49.138;10.090;2022-10-16T03:06:04;14.20;99.90
10314;DHT22;5202;49.138;10.090;2022-10-16T03:08:33;14.30;99.90
10314;DHT22;5202;49.138;10.090;2022-10-16T03:11:01;14.30;99.90
10314;DHT22;5202;49.138;10.090;2022-10-16T03:13:29;14.30;99.90
10314;DHT22;5202;49.138;10.090;2022-10-16T03:15:58;14.30;99.90
10314;DHT22;5202;49.138;10.090;2022-10-16T03:18:27;14.20;99.90
10314;DHT22;5202;49.138;10.090;2022-10-16T03:20:56;14.20;99.90
10314;DHT22;5202;49.138;10.090;2022-10-16T03:23:24;14.20;99.90
10314;DHT22;5202;49.138;10.090;2022-10-16T03:25:52;14.20;99.90
10314;DHT22;5202;49.138;10.090;2022-10-16T03:28:20;14.20;99.90
10314;DHT22;5202;49.138;10.090;2022-10-16T03:30:49;14.20;99.90
10314;DHT22;5202;49.138;10.090;2022-10-16T03:33:17;14.10;99.90
10314;DHT22;5202;49.138;10.090;2022-10-16T03:35:52;14.10;99.90
10314;DHT22;5202;49.138;10.090;2022-10-16T03:38:21;14.10;99.90
10314;DHT22;5202;49.138;10.090;2022-10-16T03:40:51;14.10;99.90
10314;DHT22;5202;49.138;10.090;2022-10-16T03:43:21;14.00;99.90
10314;DHT22;5202;49.138;10.090;2022-10-16T03:45:50;14.00;99.90
10314;DHT22;5202;49.138;10.090;2022-10-16T03:48:19;14.10;99.90
10314;DHT22;5202;49.138;10.090;2022-10-16T03:50:47;14.10;99.90
10314;DHT22;5202;49.138;10.090;2022-10-16T03:53:17;14.10;99.90
10314;DHT22;5202;49.138;10.090;2022-10-16T03:55:45;14.10;99.90
10314;DHT22;5202;49.138;10.090;2022-10-16T03:58:13;14.10;99.90
10314;DHT22;5202;49.138;10.090;2022-10-16T04:00:42;14.10;99.90
10314;DHT22;5202;49.138;10.090;2022-10-16T04:03:11;14.10;99.90
10314;DHT22;5202;49.138;10.090;2022-10-16T04:05:40;14.10;99.90
10314;DHT22;5202;49.138;10.090;2022-10-16T04:08:08;14.10;99.90
10314;DHT22;5202;49.138;10.090;2022-10-16T04:10:38;14.20;99.90
10314;DHT22;5202;49.138;10.090;2022-10-16T04:13:06;14.10;99.90
10314;DHT22;5202;49.138;10.090;2022-10-16T04:15:35;14.10;99.90
10314;DHT22;5202;49.138;10.090;2022-10-16T04:18:03;14.10;99.90
10314;DHT22;5202;49.138;10.090;2022-10-16T04:20:32;14.10;99.90
10314;DHT22;5202;49.138;10.090;2022-10-16T04:23:01;14.10;99.90
10314;DHT22;5202;49.138;10.090;2022-10-16T04:25:30;14.10;99.90
10314;DHT22;5202;49.138;10.090;2022-10-16T04:27:59;14.10;99.90
10314;DHT22;5202;49.138;10.090;2022-10-16T04:30:28;14.10;99.90
10314;DHT22;5202;49.138;10.090;2022-10-16T04:32:56;14.00;99.90
10314;DHT22;5202;49.138;10.090;2022-10-16T04:35:24;14.00;99.90
10314;DHT22;5202;49.138;10.090;2022-10-16T04:37:53;13.90;99.90
10314;DHT22;5202;49.138;10.090;2022-10-16T04:40:21;13.90;99.90
10314;DHT22;5202;49.138;10.090;2022-10-16T04:42:49;13.80;99.90
10314;DHT22;5202;49.138;10.090;2022-10-16T04:45:19;13.80;99.90
10314;DHT22;5202;49.138;10.090;2022-10-16T04:47:47;13.70;99.90
10314;DHT22;5202;49.138;10.090;2022-10-16T04:50:15;13.70;99.90
10314;DHT22;5202;49.138;10.090;2022-10-16T04:53:00;13.70;99.90
10314;DHT22;5202;49.138;10.090;2022-10-16T04:55:28;13.70;99.90
10314;DHT22;5202;49.138;10.090;2022-10-16T04:57:57;13.70;99.90
10314;DHT22;5202;49.138;10.090;2022-10-16T05:00:27;13.60;99.90
10314;DHT22;5202;49.138;10.090;2022-10-16T05:02:55;13.60;99.90
10314;DHT22;5202;49.138;10.090;2022-10-16T05:05:25;13.50;99.90
10314;DHT22;5202;49.138;10.090;2022-10-16T05:07:53;13.50;99.90
10314;DHT22;5202;49.138;10.090;2022-10-16T05:10:21;13.50;99.90
10314;DHT22;5202;49.138;10.090;2022-10-16T05:13:40;13.50;99.90
10314;DHT22;5202;49.138;10.090;2022-10-16T05:16:34;13.50;99.90
10314;DHT22;5202;49.138;10.090;2022-10-16T05:19:03;13.40;99.90
10314;DHT22;5202;49.138;10.090;2022-10-16T05:21:56;13.40;99.90
10314;DHT22;5202;49.138;10.090;2022-10-16T05:24:25;13.40;99.90
10314;DHT22;5202;49.138;10.090;2022-10-16T05:26:54;13.40;99.90
10314;DHT22;5202;49.138;10.090;2022-10-16T05:29:23;13.40;99.90
10314;DHT22;5202;49.138;10.090;2022-10-16T05:31:53;13.30;99.90
10314;DHT22;5202;49.138;10.090;2022-10-16T05:34:21;13.30;99.90
10314;DHT22;5202;49.138;10.090;2022-10-16T05:36:50;13.30;99.90
10314;DHT22;5202;49.138;10.090;2022-10-16T05:39:18;13.30;99.90
10314;DHT22;5202;49.138;10.090;2022-10-16T05:41:49;13.30;99.90
10314;DHT22;5202;49.138;10.090;2022-10-16T05:44:19;13.30;99.90
10314;DHT22;5202;49.138;10.090;2022-10-16T05:46:47;13.30;99.90
10314;DHT22;5202;49.138;10.090;2022-10-16T05:49:17;13.30;99.90
10314;DHT22;5202;49.138;10.090;2022-10-16T05:51:45;13.30;99.90
10314;DHT22;5202;49.138;10.090;2022-10-16T05:54:14;13.30;99.90
10314;DHT22;5202;49.138;10.090;2022-10-16T05:56:42;13.30;99.90
10314;DHT22;5202;49.138;10.090;2022-10-16T05:59:11;13.30;99.90
10314;DHT22;5202;49.138;10.090;2022-10-16T06:01:39;13.30;99.90
10314;DHT22;5202;49.138;10.090;2022-10-16T06:04:08;13.30;99.90
10314;DHT22;5202;49.138;10.090;2022-10-16T06:06:44;13.30;99.90
10314;DHT22;5202;49.138;10.090;2022-10-16T06:09:13;13.30;99.90
10314;DHT22;5202;49.138;10.090;2022-10-16T06:11:41;13.30;99.90
10314;DHT22;5202;49.138;10.090;2022-10-16T06:14:10;13.30;99.90
10314;DHT22;5202;49.138;10.090;2022-10-16T06:16:38;13.30;99.90
10314;DHT22;5202;49.138;10.090;2022-10-16T06:19:07;13.40;99.90
10314;DHT22;5202;49.138;10.090;2022-10-16T06:21:36;13.40;99.90
10314;DHT22;5202;49.138;10.090;2022-10-16T06:24:05;13.40;99.90
10314;DHT22;5202;49.138;10.090;2022-10-16T06:26:34;13.40;99.90
10314;DHT22;5202;49.138;10.090;2022-10-16T06:29:02;13.40;99.90
10314;DHT22;5202;49.138;10.090;2022-10-16T06:31:30;13.50;99.90
10314;DHT22;5202;49.138;10.090;2022-10-16T06:34:01;13.50;99.90
10314;DHT22;5202;49.138;10.090;2022-10-16T06:36:31;13.60;99.90
10314;DHT22;5202;49.138;10.090;2022-10-16T06:38:59;13.60;99.90
10314;DHT22;5202;49.138;10.090;2022-10-16T06:41:29;13.60;99.90
10314;DHT22;5202;49.138;10.090;2022-10-16T06:44:05;13.60;99.90
10314;DHT22;5202;49.138;10.090;2022-10-16T06:46:34;13.60;99.90
10314;DHT22;5202;49.138;10.090;2022-10-16T06:49:02;13.60;99.90
10314;DHT22;5202;49.138;10.090;2022-10-16T06:51:31;13.70;99.90
10314;DHT22;5202;49.138;10.090;2022-10-16T06:54:06;13.70;99.90
10314;DHT22;5202;49.138;10.090;2022-10-16T06:56:36;13.70;99.90
10314;DHT22;5202;49.138;10.090;2022-10-16T06:59:04;13.80;99.90
10314;DHT22;5202;49.138;10.090;2022-10-16T07:01:32;13.80;99.90
10314;DHT22;5202;49.138;10.090;2022-10-16T07:04:01;13.80;99.90
10314;DHT22;5202;49.138;10.090;2022-10-16T07:06:31;13.80;99.90
10314;DHT22;5202;49.138;10.090;2022-10-16T07:09:03;13.90;99.90
10314;DHT22;5202;49.138;10.090;2022-10-16T07:11:33;13.90;99.90
10314;DHT22;5202;49.138;10.090;2022-10-16T07:14:03;14.00;99.90
10314;DHT22;5202;49.138;10.090;2022-10-16T07:16:32;14.00;99.90
10314;DHT22;5202;49.138;10.090;2022-10-16T07:19:02;14.10;99.90
10314;DHT22;5202;49.138;10.090;2022-10-16T07:21:31;14.20;99.90
10314;DHT22;5202;49.138;10.090;2022-10-16T07:24:04;14.20;99.90
10314;DHT22;5202;49.138;10.090;2022-10-16T07:26:35;14.20;99.90
10314;DHT22;5202;49.138;10.090;2022-10-16T07:29:13;14.30;99.90
10314;DHT22;5202;49.138;10.090;2022-10-16T07:31:44;14.40;99.90
10314;DHT22;5202;49.138;10.090;2022-10-16T07:34:15;14.40;99.90
10314;DHT22;5202;49.138;10.090;2022-10-16T07:36:47;14.50;99.90
10314;DHT22;5202;49.138;10.090;2022-10-16T07:39:16;14.60;99.90
10314;DHT22;5202;49.138;10.090;2022-10-16T07:41:45;14.60;99.90
10314;DHT22;5202;49.138;10.090;2022-10-16T07:44:15;14.70;99.90
10314;DHT22;5202;49.138;10.090;2022-10-16T07:46:45;14.80;99.90
10314;DHT22;5202;49.138;10.090;2022-10-16T07:49:13;14.80;99.90
10314;DHT22;5202;49.138;10.090;2022-10-16T07:51:42;14.80;99.90
10314;DHT22;5202;49.138;10.090;2022-10-16T07:54:10;14.90;99.90
10314;DHT22;5202;49.138;10.090;2022-10-16T07:56:38;14.90;99.90
10314;DHT22;5202;49.138;10.090;2022-10-16T07:59:10;15.00;99.90
10314;DHT22;5202;49.138;10.090;2022-10-16T08:01:39;15.00;99.90
10314;DHT22;5202;49.138;10.090;2022-10-16T08:04:09;15.10;99.90
10314;DHT22;5202;49.138;10.090;2022-10-16T08:06:39;15.10;99.90
10314;DHT22;5202;49.138;10.090;2022-10-16T08:09:08;15.10;99.90
10314;DHT22;5202;49.138;10.090;2022-10-16T08:11:37;15.20;99.90
10314;DHT22;5202;49.138;10.090;2022-10-16T08:14:05;15.20;99.90
10314;DHT22;5202;49.138;10.090;2022-10-16T08:16:33;15.30;99.90
10314;DHT22;5202;49.138;10.090;2022-10-16T08:19:03;15.30;99.90
10314;DHT22;5202;49.138;10.090;2022-10-16T08:21:31;15.40;99.90
10314;DHT22;5202;49.138;10.090;2022-10-16T08:23:59;15.50;99.90
10314;DHT22;5202;49.138;10.090;2022-10-16T08:26:28;15.60;99.90
10314;DHT22;5202;49.138;10.090;2022-10-16T08:28:56;15.60;99.90
10314;DHT22;5202;49.138;10.090;2022-10-16T08:31:24;15.60;99.90
10314;DHT22;5202;49.138;10.090;2022-10-16T08:33:53;15.60;99.90
10314;DHT22;5202;49.138;10.090;2022-10-16T08:36:23;15.60;99.90
10314;DHT22;5202;49.138;10.090;2022-10-16T08:38:51;15.60;99.90
10314;DHT22;5202;49.138;10.090;2022-10-16T08:44:53;15.60;99.90
10314;DHT22;5202;49.138;10.090;2022-10-16T08:47:45;15.60;99.90
10314;DHT22;5202;49.138;10.090;2022-10-16T08:50:23;15.60;99.90
10314;DHT22;5202;49.138;10.090;2022-10-16T08:52:55;15.60;99.90
10314;DHT22;5202;49.138;10.090;2022-10-16T08:55:37;15.60;99.90
10314;DHT22;5202;49.138;10.090;2022-10-16T08:58:12;15.70;99.90
10314;DHT22;5202;49.138;10.090;2022-10-16T09:00:43;15.80;99.90
10314;DHT22;5202;49.138;10.090;2022-10-16T09:03:28;15.80;99.90
10314;DHT22;5202;49.138;10.090;2022-10-16T09:06:31;15.90;99.90
10314;DHT22;5202;49.138;10.090;2022-10-16T09:09:26;16.00;99.90
10314;DHT22;5202;49.138;10.090;2022-10-16T09:12:05;16.10;99.90
10314;DHT22;5202;49.138;10.090;2022-10-16T09:14:55;16.10;99.90
10314;DHT22;5202;49.138;10.090;2022-10-16T09:17:40;16.20;99.90
10314;DHT22;5202;49.138;10.090;2022-10-16T09:20:27;16.30;99.90
10314;DHT22;5202;49.138;10.090;2022-10-16T09:23:10;16.40;99.90
10314;DHT22;5202;49.138;10.090;2022-10-16T09:25:46;16.60;99.90
10314;DHT22;5202;49.138;10.090;2022-10-16T09:28:17;16.70;99.90
10314;DHT22;5202;49.138;10.090;2022-10-16T09:30:47;16.80;99.90
10314;DHT22;5202;49.138;10.090;2022-10-16T09:33:19;17.00;99.90
10314;DHT22;5202;49.138;10.090;2022-10-16T09:35:51;17.00;99.90
10314;DHT22;5202;49.138;10.090;2022-10-16T09:38:25;17.10;99.90
10314;DHT22;5202;49.138;10.090;2022-10-16T09:40:58;17.30;99.90
10314;DHT22;5202;49.138;10.090;2022-10-16T09:43:34;17.40;99.90
10314;DHT22;5202;49.138;10.090;2022-10-16T09:46:06;17.50;99.90
10314;DHT22;5202;49.138;10.090;2022-10-16T09:48:37;17.60;99.90
10314;DHT22;5202;49.138;10.090;2022-10-16T09:51:15;17.60;99.90
10314;DHT22;5202;49.138;10.090;2022-10-16T09:53:47;17.60;99.90
10314;DHT22;5202;49.138;10.090;2022-10-16T09:56:24;17.70;99.90
10314;DHT22;5202;49.138;10.090;2022-10-16T09:58:54;17.70;99.90
10314;DHT22;5202;49.138;10.090;2022-10-16T10:01:28;17.70;99.90
10314;DHT22;5202;49.138;10.090;2022-10-16T10:03:58;17.70;99.90
10314;DHT22;5202;49.138;10.090;2022-10-16T10:06:34;17.80;99.90
10314;DHT22;5202;49.138;10.090;2022-10-16T10:09:13;17.80;99.90
10314;DHT22;5202;49.138;10.090;2022-10-16T10:11:48;17.80;99.90
10314;DHT22;5202;49.138;10.090;2022-10-16T10:14:21;17.80;99.90
10314;DHT22;5202;49.138;10.090;2022-10-16T10:17:12;18.00;99.90
10314;DHT22;5202;49.138;10.090;2022-10-16T10:19:46;18.20;99.90
10314;DHT22;5202;49.138;10.090;2022-10-16T10:22:29;18.30;99.90
10314;DHT22;5202;49.138;10.090;2022-10-16T10:28:00;18.80;99.90
10314;DHT22;5202;49.138;10.090;2022-10-16T10:30:44;19.00;99.90
10314;DHT22;5202;49.138;10.090;2022-10-16T10:33:24;19.10;99.90
10314;DHT22;5202;49.138;10.090;2022-10-16T10:36:03;19.30;99.90
10314;DHT22;5202;49.138;10.090;2022-10-16T10:38:44;19.40;99.90
10314;DHT22;5202;49.138;10.090;2022-10-16T10:44:55;19.50;99.90
10314;DHT22;5202;49.138;10.090;2022-10-16T10:47:49;19.40;99.90
10314;DHT22;5202;49.138;10.090;2022-10-16T10:50:41;19.30;99.90
10314;DHT22;5202;49.138;10.090;2022-10-16T10:53:21;19.30;99.90
10314;DHT22;5202;49.138;10.090;2022-10-16T10:56:00;19.20;99.90
10314;DHT22;5202;49.138;10.090;2022-10-16T11:01:41;19.20;99.90
10314;DHT22;5202;49.138;10.090;2022-10-16T11:04:36;19.20;99.90
10314;DHT22;5202;49.138;10.090;2022-10-16T11:07:15;19.20;99.90
10314;DHT22;5202;49.138;10.090;2022-10-16T11:09:47;19.40;99.90
10314;DHT22;5202;49.138;10.090;2022-10-16T11:12:21;19.50;99.90
10314;DHT22;5202;49.138;10.090;2022-10-16T11:14:56;19.40;99.90
10314;DHT22;5202;49.138;10.090;2022-10-16T11:17:33;19.60;99.90
10314;DHT22;5202;49.138;10.090;2022-10-16T11:20:13;19.80;99.90
10314;DHT22;5202;49.138;10.090;2022-10-16T11:22:47;19.90;99.90
10314;DHT22;5202;49.138;10.090;2022-10-16T11:25:20;19.80;99.90
10314;DHT22;5202;49.138;10.090;2022-10-16T11:27:53;20.00;99.90
10314;DHT22;5202;49.138;10.090;2022-10-16T11:30:25;20.10;99.90
10314;DHT22;5202;49.138;10.090;2022-10-16T11:33:08;20.40;99.90
10314;DHT22;5202;49.138;10.090;2022-10-16T11:35:51;20.40;99.90
10314;DHT22;5202;49.138;10.090;2022-10-16T11:38:27;20.50;99.70
10314;DHT22;5202;49.138;10.090;2022-10-16T11:41:00;20.50;99.70
10314;DHT22;5202;49.138;10.090;2022-10-16T11:43:34;20.40;99.60
10314;DHT22;5202;49.138;10.090;2022-10-16T11:46:10;20.40;99.20
10314;DHT22;5202;49.138;10.090;2022-10-16T11:48:47;20.40;99.40
10314;DHT22;5202;49.138;10.090;2022-10-16T11:51:25;20.40;99.50
10314;DHT22;5202;49.138;10.090;2022-10-16T11:54:02;20.40;99.80
10314;DHT22;5202;49.138;10.090;2022-10-16T11:56:38;20.50;99.90
10314;DHT22;5202;49.138;10.090;2022-10-16T11:59:13;20.60;99.90
10314;DHT22;5202;49.138;10.090;2022-10-16T12:01:49;20.60;99.90
10314;DHT22;5202;49.138;10.090;2022-10-16T12:04:28;20.70;99.90
10314;DHT22;5202;49.138;10.090;2022-10-16T12:07:04;20.80;99.90
10314;DHT22;5202;49.138;10.090;2022-10-16T12:09:37;20.90;99.90
10314;DHT22;5202;49.138;10.090;2022-10-16T12:12:25;21.00;99.90
10314;DHT22;5202;49.138;10.090;2022-10-16T12:15:01;21.00;99.50
10314;DHT22;5202;49.138;10.090;2022-10-16T12:17:45;21.20;99.40
10314;DHT22;5202;49.138;10.090;2022-10-16T12:20:25;21.30;98.50
10314;DHT22;5202;49.138;10.090;2022-10-16T12:22:59;21.50;97.70
10314;DHT22;5202;49.138;10.090;2022-10-16T12:25:30;21.60;98.30
10314;DHT22;5202;49.138;10.090;2022-10-16T12:28:02;21.90;98.20
10314;DHT22;5202;49.138;10.090;2022-10-16T12:30:33;22.20;97.50
10314;DHT22;5202;49.138;10.090;2022-10-16T12:33:04;22.30;97.60
10314;DHT22;5202;49.138;10.090;2022-10-16T12:35:43;22.50;96.70
10314;DHT22;5202;49.138;10.090;2022-10-16T12:38:17;22.30;96.60
10314;DHT22;5202;49.138;10.090;2022-10-16T12:40:54;22.20;96.60
10314;DHT22;5202;49.138;10.090;2022-10-16T12:43:28;22.40;97.10
10314;DHT22;5202;49.138;10.090;2022-10-16T12:46:21;22.50;96.90
10314;DHT22;5202;49.138;10.090;2022-10-16T12:48:51;22.70;96.00
10314;DHT22;5202;49.138;10.090;2022-10-16T12:51:36;22.80;95.90
10314;DHT22;5202;49.138;10.090;2022-10-16T12:54:12;22.90;95.00
10314;DHT22;5202;49.138;10.090;2022-10-16T12:56:51;22.90;95.30
10314;DHT22;5202;49.138;10.090;2022-10-16T12:59:38;22.90;94.70
10314;DHT22;5202;49.138;10.090;2022-10-16T13:02:38;22.70;94.90
10314;DHT22;5202;49.138;10.090;2022-10-16T13:05:26;22.70;94.70
10314;DHT22;5202;49.138;10.090;2022-10-16T13:08:22;22.90;94.20
10314;DHT22;5202;49.138;10.090;2022-10-16T13:11:03;23.20;93.70
10314;DHT22;5202;49.138;10.090;2022-10-16T13:13:53;23.40;93.70
10314;DHT22;5202;49.138;10.090;2022-10-16T13:16:42;23.50;93.40
10314;DHT22;5202;49.138;10.090;2022-10-16T13:19:24;23.70;92.60
10314;DHT22;5202;49.138;10.090;2022-10-16T13:22:03;23.60;92.10
10314;DHT22;5202;49.138;10.090;2022-10-16T13:24:51;23.40;92.10
10314;DHT22;5202;49.138;10.090;2022-10-16T13:27:33;23.40;91.40
10314;DHT22;5202;49.138;10.090;2022-10-16T13:30:12;23.50;91.50
10314;DHT22;5202;49.138;10.090;2022-10-16T13:32:45;23.50;91.60
10314;DHT22;5202;49.138;10.090;2022-10-16T13:35:19;23.50;91.20
10314;DHT22;5202;49.138;10.090;2022-10-16T13:37:49;23.60;90.60
10314;DHT22;5202;49.138;10.090;2022-10-16T13:40:21;23.80;90.60
10314;DHT22;5202;49.138;10.090;2022-10-16T13:42:50;24.00;90.00
10314;DHT22;5202;49.138;10.090;2022-10-16T13:45:21;24.10;88.40
10314;DHT22;5202;49.138;10.090;2022-10-16T13:48:02;24.10;88.00
10314;DHT22;5202;49.138;10.090;2022-10-16T13:50:31;24.10;88.80
10314;DHT22;5202;49.138;10.090;2022-10-16T13:53:06;24.00;88.30
10314;DHT22;5202;49.138;10.090;2022-10-16T13:55:36;23.60;88.40
10314;DHT22;5202;49.138;10.090;2022-10-16T13:58:05;23.10;89.30
10314;DHT22;5202;49.138;10.090;2022-10-16T14:00:35;22.90;90.10
10314;DHT22;5202;49.138;10.090;2022-10-16T14:03:13;22.80;90.60
10314;DHT22;5202;49.138;10.090;2022-10-16T14:05:53;22.60;90.30
10314;DHT22;5202;49.138;10.090;2022-10-16T14:08:23;22.50;90.70
10314;DHT22;5202;49.138;10.090;2022-10-16T14:10:56;22.50;90.20
10314;DHT22;5202;49.138;10.090;2022-10-16T14:13:30;22.20;90.80
10314;DHT22;5202;49.138;10.090;2022-10-16T14:16:04;22.10;91.30
10314;DHT22;5202;49.138;10.090;2022-10-16T14:18:35;22.10;92.00
10314;DHT22;5202;49.138;10.090;2022-10-16T14:21:07;22.00;91.80
10314;DHT22;5202;49.138;10.090;2022-10-16T14:23:41;22.00;92.10
10314;DHT22;5202;49.138;10.090;2022-10-16T14:26:16;21.90;92.60
10314;DHT22;5202;49.138;10.090;2022-10-16T14:28:46;21.90;92.40
10314;DHT22;5202;49.138;10.090;2022-10-16T14:31:36;21.80;92.90
10314;DHT22;5202;49.138;10.090;2022-10-16T14:34:24;21.90;93.20
10314;DHT22;5202;49.138;10.090;2022-10-16T14:36:54;21.90;94.40
10314;DHT22;5202;49.138;10.090;2022-10-16T14:39:25;21.90;95.80
10314;DHT22;5202;49.138;10.090;2022-10-16T14:41:57;21.90;96.80
10314;DHT22;5202;49.138;10.090;2022-10-16T14:44:29;21.90;97.80
10314;DHT22;5202;49.138;10.090;2022-10-16T14:47:08;21.90;98.90
10314;DHT22;5202;49.138;10.090;2022-10-16T14:49:37;21.80;98.20
10314;DHT22;5202;49.138;10.090;2022-10-16T14:52:10;21.70;97.70
10314;DHT22;5202;49.138;10.090;2022-10-16T14:54:39;21.70;98.60
10314;DHT22;5202;49.138;10.090;2022-10-16T14:57:17;21.60;99.90
10314;DHT22;5202;49.138;10.090;2022-10-16T14:59:47;21.60;99.90
10314;DHT22;5202;49.138;10.090;2022-10-16T15:02:25;21.50;99.90
10314;DHT22;5202;49.138;10.090;2022-10-16T15:04:55;21.50;99.90
10314;DHT22;5202;49.138;10.090;2022-10-16T15:07:24;21.40;99.90
10314;DHT22;5202;49.138;10.090;2022-10-16T15:09:53;21.30;99.90
10314;DHT22;5202;49.138;10.090;2022-10-16T15:12:25;21.20;99.90
10314;DHT22;5202;49.138;10.090;2022-10-16T15:14:53;21.20;99.90
10314;DHT22;5202;49.138;10.090;2022-10-16T15:17:21;21.10;99.90
10314;DHT22;5202;49.138;10.090;2022-10-16T15:19:50;21.10;99.90
10314;DHT22;5202;49.138;10.090;2022-10-16T15:22:18;21.10;99.90
10314;DHT22;5202;49.138;10.090;2022-10-16T15:24:49;21.00;99.90
10314;DHT22;5202;49.138;10.090;2022-10-16T15:27:18;20.90;99.90
10314;DHT22;5202;49.138;10.090;2022-10-16T15:29:47;20.80;99.90
10314;DHT22;5202;49.138;10.090;2022-10-16T15:32:15;20.80;99.90
10314;DHT22;5202;49.138;10.090;2022-10-16T15:34:44;20.70;99.90
10314;DHT22;5202;49.138;10.090;2022-10-16T15:37:12;20.60;99.90
10314;DHT22;5202;49.138;10.090;2022-10-16T15:39:40;20.50;99.90
10314;DHT22;5202;49.138;10.090;2022-10-16T15:42:09;20.40;99.90
10314;DHT22;5202;49.138;10.090;2022-10-16T15:44:37;20.30;99.90
10314;DHT22;5202;49.138;10.090;2022-10-16T15:47:08;20.20;99.90
10314;DHT22;5202;49.138;10.090;2022-10-16T15:49:36;20.10;99.90
10314;DHT22;5202;49.138;10.090;2022-10-16T15:52:05;20.10;99.90
10314;DHT22;5202;49.138;10.090;2022-10-16T15:54:33;20.00;99.90
10314;DHT22;5202;49.138;10.090;2022-10-16T15:57:01;20.00;99.90
10314;DHT22;5202;49.138;10.090;2022-10-16T15:59:29;20.00;99.90
10314;DHT22;5202;49.138;10.090;2022-10-16T16:01:58;19.90;99.90
10314;DHT22;5202;49.138;10.090;2022-10-16T16:04:29;19.90;99.90
10314;DHT22;5202;49.138;10.090;2022-10-16T16:07:22;19.80;99.90
10314;DHT22;5202;49.138;10.090;2022-10-16T16:09:50;19.70;99.90
10314;DHT22;5202;49.138;10.090;2022-10-16T16:12:18;19.60;99.90
10314;DHT22;5202;49.138;10.090;2022-10-16T16:14:47;19.60;99.90
10314;DHT22;5202;49.138;10.090;2022-10-16T16:17:15;19.50;99.90
10314;DHT22;5202;49.138;10.090;2022-10-16T16:19:46;19.40;99.90
10314;DHT22;5202;49.138;10.090;2022-10-16T16:22:14;19.30;99.90